Alcova, WY

4:33 AM MST on November 20, 2017 (GMT -0700)
Natrona County International | | Change Station
Active Advisory: High Wind Warning

Elev 5348 ft 42.91 °N, 106.46 °W | Updated 40 minutes ago

Clear
Clear
39 °F
Feels Like 28 °F
N
26
Wind Variable Wind from SSW
Gusts 37 mph

Today
High -- | Low -- °F
--% Chance of Precip.
Yesterday
High -- | Low -- °F
Precip. -- in
Pressure 29.81 in
Visibility 10.0 miles
Clouds Clear
Windchill 28 °F
Dew Point 12 °F
Humidity 33%
Rainfall 0.00 in
Snow Depth Not available.
7:06 AM 4:41 PM
Waxing Crescent, 4% visible
METAR KCPR 201053Z AUTO 21023G32KT 10SM CLR 04/M11 A2983 RMK AO2 PK WND 21037/1001 RAB10E13 SLP095 P0000 T00391111
Pressure 29.81 in
Visibility 10.0 miles
Clouds Clear
Windchill 28 °F
Dew Point 12 °F
Humidity 33%
Rainfall 0.00 in
Snow Depth Not available.
7:06 AM 4:41 PM
Waxing Crescent, 4% visible
METAR KCPR 201053Z AUTO 21023G32KT 10SM CLR 04/M11 A2983 RMK AO2 PK WND 21037/1001 RAB10E13 SLP095 P0000 T00391111

Get Your Daily Forecast Email!

Thanks for signing up!

Be on the lookout for a verification email in your inbox.

You'll start receiving severe weather alerts in your inbox..

×

10-Day Weather Forecast

Almanac

Astronomy

Nov. 20, 2017 Rise Set
Actual Time
Civil Twilight
Nautical Twilight
Astronomical Twilight
Moon
Length of Visible Light
Length of Day
Tomorrow will be .
, % of the Moon is Illuminated

Today's Extremes

State Highs State Lows

Community

WunderPhotos

Category 6

Welcome to Category 6. This is the collective home for Weather Underground's featured writeups by Dr. Jeff Masters (right), Bob Henson (left), Chris Burt, and other regular contributors.

Nearby

Air Quality

  Air Quality AQ Index Pollutant
Not available.

Snow Depth

Station Depth Elevation

Earthquake Activity

City Distance Mag. Time & Date
Minimum magnitude displayed is 2.5.

Coastal Water Temperatures

Place Temperature

Stations

Nearby Weather Stations

Station Location Temp. Windchill Dew Point Humidity Wind Precip. Elev Updated Type
                   

Watches & Warnings

High Wind Warning
Issued: 1:02 AM MST Nov. 20, 2017 – National Weather Service

... High Wind Warning remains in effect until 5 PM MST this
afternoon...

* timing... increasingly strong winds aloft ahead of the next
approaching upper level trough will affect much of the wind
corridor from southern Fremont County eastward and through
Natrona County today, bringing a threat of high winds.

* Winds... west winds of 25 to 40 mph with gusts of 55 to 65 mph.

* Impacts... strong cross winds will produce a significant blow
over threat to trucks pulling light weight and high profile
trailers.

Precautionary/preparedness actions...

A High Wind Warning means a hazardous high wind event is expected
or occurring. Sustained wind speeds of at least 40 mph or gusts
of 58 mph or more can lead to property damage.